Time;durP1;ratioP1;P1;durP2;ratioP2;P2;SDS_P1;SDS_P2;PMS_P1;PMS_P2;Temp;Humidity;BMP_temperature;BMP_pressure;BME280_temperature;BME280_humidity;BME280_pressure;Samples;Min_cycle;Max_cycle;Signal;HPM_P1;HPM_P2
2022/05/25 00:01:55;;;;;;;2.03;1.03;;;;;;;13.32;67.48;100424.34;5036734;28;20225;-83
2022/05/25 00:04:22;;;;;;;3.33;1.13;;;;;;;13.31;67.51;100409.25;5031991;28;20244;-83
2022/05/25 00:06:49;;;;;;;1.30;1.10;;;;;;;13.31;68.11;100417.28;5031069;28;20305;-81
2022/05/25 00:09:17;;;;;;;2.50;1.10;;;;;;;13.31;67.79;100422.63;5026296;28;20214;-84
2022/05/25 00:11:44;;;;;;;1.87;1.20;;;;;;;13.28;67.68;100420.19;5029403;28;20226;-83
2022/05/25 00:14:11;;;;;;;2.07;1.57;;;;;;;13.29;67.83;100427.25;5030846;28;20198;-83
2022/05/25 00:16:38;;;;;;;1.80;1.10;;;;;;;13.27;67.75;100423.84;5035690;28;20209;-81
2022/05/25 00:21:49;;;;;;;3.70;1.47;;;;;;;13.25;68.18;100423.13;5017935;28;20298;-82
2022/05/25 00:24:17;;;;;;;1.90;1.10;;;;;;;13.23;68.20;100423.25;5030846;28;20226;-81
2022/05/25 00:26:44;;;;;;;1.73;1.00;;;;;;;13.23;68.24;100427.75;5030786;28;20210;-80
2022/05/25 00:29:11;;;;;;;2.37;1.20;;;;;;;13.22;68.12;100423.38;5030935;28;20224;-82
2022/05/25 00:31:37;;;;;;;2.03;1.10;;;;;;;13.20;68.13;100429.69;5030863;28;20308;-82
2022/05/25 00:34:04;;;;;;;1.77;1.20;;;;;;;13.19;68.53;100435.16;5040425;28;20220;-81
2022/05/25 00:36:31;;;;;;;1.73;1.23;;;;;;;13.19;67.98;100436.00;5037920;28;20202;-84
2022/05/25 00:38:57;;;;;;;1.30;1.20;;;;;;;13.18;68.49;100439.66;5031076;28;20210;-82
2022/05/25 00:41:28;;;;;;;1.43;1.30;;;;;;;13.18;68.50;100436.13;5030461;28;20236;-83
2022/05/25 00:43:55;;;;;;;3.17;1.00;;;;;;;13.17;68.57;100439.78;5013679;28;20253;-82
2022/05/25 00:46:23;;;;;;;1.80;1.07;;;;;;;13.17;68.51;100451.31;5016934;28;20203;-80
2022/05/25 00:48:53;;;;;;;4.27;1.30;;;;;;;13.16;68.37;100446.94;5031275;28;20199;-81
2022/05/25 00:51:24;;;;;;;1.17;1.00;;;;;;;13.17;68.78;100455.81;5041597;28;20237;-82
2022/05/25 00:53:57;;;;;;;1.30;1.00;;;;;;;13.15;68.58;100450.59;5028596;28;20567;-81
2022/05/25 00:56:27;;;;;;;1.50;1.00;;;;;;;13.15;68.61;100455.94;5031622;28;20232;-81
2022/05/25 00:58:58;;;;;;;2.20;1.27;;;;;;;13.14;68.65;100448.84;5051381;28;20206;-82
2022/05/25 01:01:26;;;;;;;1.80;1.00;;;;;;;13.14;68.80;100443.50;5051454;28;20226;-82
2022/05/25 01:03:52;;;;;;;1.30;1.17;;;;;;;13.14;68.65;100435.47;5035532;28;20222;-83
2022/05/25 01:06:34;;;;;;;1.43;1.30;;;;;;;13.13;68.70;100446.28;5030681;28;20210;-81
2022/05/25 01:09:11;;;;;;;1.77;1.20;;;;;;;13.11;68.62;100445.53;5030919;28;20193;-81
2022/05/25 01:11:48;;;;;;;1.57;1.20;;;;;;;13.08;68.79;100448.44;5031079;28;20240;-82
2022/05/25 01:14:38;;;;;;;1.53;1.00;;;;;;;13.07;68.98;100455.66;5031266;28;20201;-82
2022/05/25 01:17:15;;;;;;;2.10;1.10;;;;;;;13.05;68.93;100457.59;5030734;28;20736;-84
2022/05/25 01:19:59;;;;;;;3.23;1.20;;;;;;;13.04;69.00;100458.56;5031065;28;20240;-82
2022/05/25 01:22:49;;;;;;;2.37;1.37;;;;;;;13.02;68.95;100455.13;5011463;28;20235;-82
2022/05/25 01:25:27;;;;;;;1.57;1.13;;;;;;;12.99;68.98;100452.69;5009176;28;20231;-82
2022/05/25 01:27:57;;;;;;;2.03;1.40;;;;;;;12.99;69.25;100455.38;5010453;28;20201;-82
2022/05/25 01:30:31;;;;;;;2.70;1.17;;;;;;;12.96;68.98;100458.28;5022908;28;20687;-82
2022/05/25 01:33:09;;;;;;;1.90;1.33;;;;;;;12.96;69.10;100468.97;5031344;28;20204;-82
2022/05/25 01:35:50;;;;;;;1.33;1.23;;;;;;;12.92;69.15;100467.47;5034391;28;20187;-82
2022/05/25 01:38:22;;;;;;;3.63;1.50;;;;;;;12.92;69.40;100467.47;5050538;28;20191;-82
2022/05/25 01:40:56;;;;;;;2.90;1.70;;;;;;;12.92;69.55;100474.66;5051530;28;20240;-82
2022/05/25 01:43:28;;;;;;;1.90;1.70;;;;;;;12.86;70.16;100466.16;5037145;28;20198;-82
2022/05/25 01:46:02;;;;;;;1.67;1.57;;;;;;;12.82;70.28;100466.50;5031536;28;20654;-82
2022/05/25 01:48:31;;;;;;;2.13;1.70;;;;;;;12.76;70.49;100472.28;5034505;28;20210;-82
2022/05/25 01:51:01;;;;;;;2.50;1.90;;;;;;;12.73;71.10;100472.50;5031917;28;20233;-81
2022/05/25 01:53:32;;;;;;;2.60;1.90;;;;;;;12.69;71.48;100471.06;5014908;28;20661;-81
2022/05/25 01:56:03;;;;;;;2.27;1.80;;;;;;;12.64;71.65;100475.88;5025919;28;20289;-80
2022/05/25 01:58:36;;;;;;;4.10;1.87;;;;;;;12.61;71.47;100478.78;5033493;28;20197;-82
2022/05/25 02:01:06;;;;;;;2.37;1.70;;;;;;;12.57;72.11;100482.66;5034195;28;20221;-82
2022/05/25 02:06:47;;;;;;;2.60;1.80;;;;;;;12.51;72.46;100487.50;5033590;28;20212;-81
2022/05/25 02:09:25;;;;;;;1.60;1.50;;;;;;;12.48;72.97;100495.72;5030041;28;20215;-81
2022/05/25 02:11:58;;;;;;;2.10;1.67;;;;;;;12.47;72.76;100496.69;5030676;28;20240;-80
2022/05/25 02:14:35;;;;;;;2.00;1.60;;;;;;;12.45;73.01;100501.28;5033821;28;20202;-82
2022/05/25 02:17:12;;;;;;;2.50;2.10;;;;;;;12.42;72.98;100501.50;5032973;28;20201;-82
2022/05/25 02:19:46;;;;;;;4.47;1.80;;;;;;;12.40;72.94;100498.09;5014204;28;20214;-81
2022/05/25 02:22:18;;;;;;;2.13;1.50;;;;;;;12.38;72.89;100504.50;5014097;28;20240;-81
2022/05/25 02:24:51;;;;;;;2.10;1.90;;;;;;;12.33;72.88;100504.88;5014035;28;20673;-82
2022/05/25 02:27:23;;;;;;;3.07;1.70;;;;;;;12.32;73.16;100510.31;5020624;28;20190;-82
2022/05/25 02:29:54;;;;;;;2.40;1.83;;;;;;;12.30;73.13;100506.91;5033760;28;20266;-82
2022/05/25 02:32:28;;;;;;;2.03;1.90;;;;;;;12.27;73.13;100513.31;5034651;28;20548;-81
2022/05/25 02:34:57;;;;;;;5.10;2.10;;;;;;;12.25;72.97;100509.91;5035171;28;20225;-82
2022/05/25 02:37:26;;;;;;;3.53;2.03;;;;;;;12.23;73.14;100509.16;5034025;28;20213;-83
2022/05/25 02:39:54;;;;;;;3.67;2.00;;;;;;;12.21;73.22;100508.41;5035682;28;20213;-84
2022/05/25 02:42:21;;;;;;;2.07;1.70;;;;;;;12.19;73.09;100515.69;5033823;28;20613;-82
2022/05/25 02:44:47;;;;;;;3.13;2.00;;;;;;;12.17;73.12;100512.28;5032652;28;20236;-82
2022/05/25 02:47:14;;;;;;;3.03;2.10;;;;;;;12.15;73.18;100508.88;5024270;28;20207;-82
2022/05/25 02:49:42;;;;;;;3.37;2.17;;;;;;;12.13;73.42;100510.78;5033906;28;20570;-82
2022/05/25 02:52:10;;;;;;;2.53;2.07;;;;;;;12.10;73.33;100519.88;5033952;28;20222;-82
2022/05/25 02:54:38;;;;;;;2.63;1.90;;;;;;;12.08;73.40;100518.28;5034090;28;20205;-83
2022/05/25 02:57:06;;;;;;;3.57;1.60;;;;;;;12.05;73.43;100526.50;5029935;28;20255;-82
2022/05/25 02:59:33;;;;;;;3.00;1.80;;;;;;;12.02;73.56;100535.56;5033804;28;20202;-82
2022/05/25 03:02:01;;;;;;;1.80;1.50;;;;;;;11.99;73.59;100532.28;5031883;28;20235;-82
2022/05/25 03:04:28;;;;;;;2.77;1.90;;;;;;;11.97;73.88;100529.72;5032750;28;20236;-83
2022/05/25 03:06:55;;;;;;;2.50;2.03;;;;;;;11.96;73.94;100543.19;5032038;28;20212;-82
2022/05/25 03:09:22;;;;;;;2.90;2.10;;;;;;;11.94;74.02;100537.94;5029826;28;20210;-82
2022/05/25 03:11:49;;;;;;;1.93;1.70;;;;;;;11.95;74.01;100541.47;5032489;28;20221;-82
2022/05/25 03:14:15;;;;;;;3.23;1.97;;;;;;;11.92;74.05;100549.69;5032799;28;20883;-82
2022/05/25 03:16:42;;;;;;;2.50;1.80;;;;;;;11.90;73.82;100546.28;5038567;28;20209;-80
2022/05/25 03:19:08;;;;;;;2.70;1.90;;;;;;;11.88;74.23;100546.38;5035145;28;20221;-83
2022/05/25 03:21:35;;;;;;;2.30;2.10;;;;;;;11.86;73.99;100555.44;5032056;28;20602;-82
2022/05/25 03:24:03;;;;;;;3.37;2.10;;;;;;;11.82;74.16;100549.50;5011361;28;20574;-83
2022/05/25 03:26:30;;;;;;;6.53;1.97;;;;;;;11.80;74.23;100562.09;5018223;28;21099;-83
2022/05/25 03:28:57;;;;;;;3.87;2.00;;;;;;;11.77;74.40;100565.81;5014098;28;20213;-81
2022/05/25 03:31:23;;;;;;;2.83;2.20;;;;;;;11.77;74.44;100565.81;5016170;28;20228;-81
2022/05/25 03:33:50;;;;;;;3.33;2.00;;;;;;;11.76;74.54;100566.78;5021259;28;20245;-82
2022/05/25 03:36:17;;;;;;;3.47;2.33;;;;;;;11.76;74.56;100560.59;5022406;28;20202;-83
2022/05/25 03:38:43;;;;;;;6.87;2.40;;;;;;;11.73;74.74;100566.94;5052030;28;20206;-81
2022/05/25 03:41:11;;;;;;;4.47;2.33;;;;;;;11.72;74.62;100561.72;5034724;28;20362;-82
2022/05/25 03:43:39;;;;;;;4.57;2.50;;;;;;;11.71;74.44;100571.53;5011113;28;20660;-81
2022/05/25 03:46:06;;;;;;;4.83;2.47;;;;;;;11.70;74.68;100575.16;5019764;28;20620;-82
2022/05/25 03:48:32;;;;;;;3.40;2.17;;;;;;;11.70;74.77;100576.97;5014752;28;20206;-82
2022/05/25 03:50:59;;;;;;;5.03;2.93;;;;;;;11.69;74.81;100573.44;5014720;28;20230;-82
2022/05/25 03:53:25;;;;;;;3.00;2.30;;;;;;;11.67;74.74;100572.69;5024170;28;20221;-81
2022/05/25 03:55:52;;;;;;;4.13;2.30;;;;;;;11.66;74.92;100570.13;5017869;28;20211;-82
2022/05/25 03:58:20;;;;;;;4.37;2.60;;;;;;;11.65;74.93;100571.94;5016642;28;20664;-80
2022/05/25 04:00:47;;;;;;;3.73;2.20;;;;;;;11.63;75.23;100579.22;5015830;28;20228;-79
2022/05/25 04:03:16;;;;;;;4.83;2.13;;;;;;;11.63;75.32;100579.22;5017808;28;20214;-82
2022/05/25 04:05:43;;;;;;;4.27;2.40;;;;;;;11.63;75.48;100589.91;5017658;28;20226;-82
2022/05/25 04:08:11;;;;;;;3.50;2.37;;;;;;;11.63;75.56;100581.91;5018913;28;20230;-82
2022/05/25 04:10:37;;;;;;;2.70;2.30;;;;;;;11.63;75.70;100579.22;5016644;28;20717;-82
2022/05/25 04:13:04;;;;;;;2.43;1.80;;;;;;;11.64;75.34;100580.09;5012666;28;20651;-84
2022/05/25 04:15:33;;;;;;;2.30;2.10;;;;;;;11.64;75.54;100578.28;5019687;28;20214;-83
2022/05/25 04:18:00;;;;;;;3.30;2.33;;;;;;;11.64;75.89;100578.28;5035065;28;20203;-80
2022/05/25 04:20:29;;;;;;;3.03;2.30;;;;;;;11.67;75.95;100595.84;5027386;28;20246;-82
2022/05/25 04:22:55;;;;;;;3.00;2.47;;;;;;;11.67;75.92;100582.50;5019513;28;20198;-82
2022/05/25 04:25:24;;;;;;;3.47;2.30;;;;;;;11.67;75.96;100591.38;5022027;28;20590;-82
2022/05/25 04:27:52;;;;;;;3.93;2.90;;;;;;;11.69;75.85;100591.28;5025043;28;20211;-81
2022/05/25 04:30:21;;;;;;;4.60;3.17;;;;;;;11.69;75.87;100589.47;5022126;28;20660;-83
2022/05/25 04:32:49;;;;;;;3.80;2.90;;;;;;;11.71;76.04;100586.69;5025739;28;20213;-82
2022/05/25 04:35:17;;;;;;;4.47;3.33;;;;;;;11.71;76.10;100590.22;5029875;28;20199;-81
2022/05/25 04:37:52;;;;;;;3.43;2.87;;;;;;;11.73;76.07;100580.28;5017991;28;20579;-82
2022/05/25 04:40:21;;;;;;;3.63;3.17;;;;;;;11.75;76.18;100588.19;5020772;28;20195;-82
2022/05/25 04:42:48;;;;;;;5.87;3.37;;;;;;;11.76;76.09;100580.13;5026108;28;20258;-81
2022/05/25 04:45:15;;;;;;;6.53;3.30;;;;;;;11.78;76.25;100582.69;5009659;28;20243;-80
2022/05/25 04:47:42;;;;;;;3.67;3.33;;;;;;;11.79;76.08;100593.25;5015674;28;20213;-79
2022/05/25 04:50:12;;;;;;;4.07;3.20;;;;;;;11.83;76.29;100592.06;5019439;28;20214;-81
2022/05/25 04:52:39;;;;;;;4.07;3.07;;;;;;;11.86;76.07;100603.47;5018518;28;20202;-83
2022/05/25 04:55:08;;;;;;;3.30;3.00;;;;;;;11.87;76.31;100595.38;5017430;28;20199;-83
2022/05/25 04:57:34;;;;;;;3.70;3.40;;;;;;;11.89;76.05;100587.25;5020080;28;20207;-81
2022/05/25 05:00:05;;;;;;;5.23;3.63;;;;;;;11.90;75.99;100600.50;5014991;28;20207;-81
2022/05/25 05:02:32;;;;;;;5.43;3.77;;;;;;;11.92;75.90;100597.72;5016467;28;20227;-82
2022/05/25 05:04:59;;;;;;;3.67;3.33;;;;;;;11.95;76.19;100600.19;5018539;28;20585;-80
2022/05/25 05:07:34;;;;;;;4.43;3.67;;;;;;;11.98;76.19;100597.31;5013763;28;20616;-83
2022/05/25 05:10:02;;;;;;;4.93;3.90;;;;;;;12.02;76.02;100593.44;5023098;28;21470;-81
2022/05/25 05:12:29;;;;;;;4.90;3.77;;;;;;;12.05;75.92;100598.56;5008903;28;20226;-83
2022/05/25 05:14:57;;;;;;;5.00;3.67;;;;;;;12.10;75.91;100609.78;5013224;28;20195;-81
2022/05/25 05:17:26;;;;;;;5.63;4.10;;;;;;;12.14;75.97;100608.63;5013824;28;20254;-80
2022/05/25 05:19:52;;;;;;;6.97;4.57;;;;;;;12.17;75.70;100608.41;5018643;28;20225;-81
2022/05/25 05:22:19;;;;;;;4.97;4.27;;;;;;;12.20;75.57;100607.31;5019827;28;22050;-82
2022/05/25 05:24:47;;;;;;;5.73;3.93;;;;;;;12.26;75.55;100622.91;5019936;28;20237;-81
2022/05/25 05:27:13;;;;;;;4.77;3.87;;;;;;;12.31;75.73;100624.28;5010423;28;20212;-82
2022/05/25 05:29:40;;;;;;;5.63;3.67;;;;;;;12.37;75.37;100623.84;5020210;28;20210;-80
2022/05/25 05:32:10;;;;;;;6.73;4.13;;;;;;;12.43;75.54;100622.56;5016508;28;20239;-80
2022/05/25 05:34:36;;;;;;;4.40;3.80;;;;;;;12.51;75.39;100623.72;5016999;28;20656;-81
2022/05/25 05:37:08;;;;;;;4.27;3.40;;;;;;;12.62;74.77;100627.44;5018088;28;20251;-80
2022/05/25 05:39:39;;;;;;;4.97;3.77;;;;;;;12.71;74.67;100624.13;5019726;28;20199;-80
2022/05/25 05:42:10;;;;;;;6.03;3.83;;;;;;;12.79;74.17;100630.59;5019283;28;20231;-81
2022/05/25 05:44:39;;;;;;;4.20;3.57;;;;;;;12.88;73.75;100622.88;5020977;28;20215;-82
2022/05/25 05:47:09;;;;;;;5.17;3.90;;;;;;;13.01;73.87;100621.84;5019137;28;20215;-81
2022/05/25 05:49:36;;;;;;;6.73;3.87;;;;;;;13.16;73.89;100619.91;5015762;28;20218;-81
2022/05/25 05:52:03;;;;;;;4.47;3.93;;;;;;;13.33;73.44;100626.66;5022183;28;20238;-80
2022/05/25 05:54:30;;;;;;;5.27;3.77;;;;;;;13.46;72.83;100625.59;5014351;28;20209;-80
2022/05/25 05:56:58;;;;;;;5.67;4.33;;;;;;;13.59;71.96;100625.56;5013800;28;20221;-80
2022/05/25 05:59:26;;;;;;;5.33;4.50;;;;;;;13.73;71.43;100621.81;5022651;28;20222;-80
2022/05/25 06:01:53;;;;;;;4.57;4.17;;;;;;;13.85;70.72;100634.25;5030893;28;20233;-80
2022/05/25 06:04:19;;;;;;;5.50;5.00;;;;;;;13.96;70.95;100636.09;5034240;28;20232;-80
2022/05/25 06:06:46;;;;;;;4.57;4.10;;;;;;;14.09;69.92;100634.16;5031675;28;20595;-80
2022/05/25 06:09:13;;;;;;;5.77;4.27;;;;;;;14.22;69.58;100637.59;5034440;28;20210;-80
2022/05/25 06:11:41;;;;;;;4.83;4.33;;;;;;;14.37;69.90;100646.22;5033838;28;20230;-80
2022/05/25 06:14:08;;;;;;;4.67;4.23;;;;;;;14.46;68.77;100649.09;5033918;28;20209;-80
2022/05/25 06:19:26;;;;;;;7.93;4.70;;;;;;;14.78;68.26;100659.06;5033625;28;20225;-80
2022/05/25 06:21:57;;;;;;;5.70;3.90;;;;;;;14.90;67.57;100652.69;5033488;28;20244;-80
2022/05/25 06:24:23;;;;;;;5.37;4.67;;;;;;;15.05;67.17;100661.34;5031457;28;20208;-81
2022/05/25 06:26:50;;;;;;;4.87;4.47;;;;;;;15.19;66.69;100656.53;5024455;28;20226;-81
2022/05/25 06:29:18;;;;;;;5.70;4.67;;;;;;;15.28;66.01;100654.91;5032064;28;20214;-81
2022/05/25 06:31:46;;;;;;;6.30;4.97;;;;;;;15.41;65.62;100652.91;5023769;28;20695;-81
2022/05/25 06:34:13;;;;;;;5.00;4.50;;;;;;;15.52;65.24;100657.38;5032601;28;20213;-82
2022/05/25 06:36:39;;;;;;;5.07;4.17;;;;;;;15.65;64.90;100658.09;5031663;28;20207;-81
2022/05/25 06:39:06;;;;;;;8.40;5.73;;;;;;;15.77;64.14;100654.34;5030736;28;20211;-81
2022/05/25 06:41:32;;;;;;;5.97;5.37;;;;;;;15.86;63.71;100655.41;5033190;28;20265;-81
2022/05/25 06:44:00;;;;;;;6.17;5.57;;;;;;;15.98;63.13;100657.03;5032692;28;20239;-80
2022/05/25 06:46:27;;;;;;;5.83;5.10;;;;;;;16.11;63.60;100664.94;5031687;28;20325;-80
2022/05/25 06:48:58;;;;;;;6.47;5.40;;;;;;;16.24;63.13;100669.09;5029764;28;20208;-80
2022/05/25 06:51:27;;;;;;;6.03;5.40;;;;;;;16.40;62.46;100670.44;5021455;28;20271;-80
2022/05/25 06:53:54;;;;;;;6.30;5.70;;;;;;;16.54;61.85;100670.09;5025298;28;20220;-80
2022/05/25 06:56:22;;;;;;;6.57;5.77;;;;;;;16.61;61.18;100669.44;5024319;28;20200;-80
2022/05/25 06:58:49;;;;;;;6.03;4.80;;;;;;;16.70;61.18;100678.53;5018067;28;20203;-80
2022/05/25 07:01:16;;;;;;;5.63;5.00;;;;;;;16.80;61.13;100681.28;5021637;28;20725;-81
2022/05/25 07:03:42;;;;;;;6.53;5.20;;;;;;;16.90;60.73;100677.63;5025207;28;20222;-80
2022/05/25 07:06:12;;;;;;;5.57;4.87;;;;;;;17.00;60.28;100674.97;5023378;28;20236;-80
2022/05/25 07:08:38;;;;;;;6.57;4.90;;;;;;;17.13;60.71;100675.56;5022034;28;20576;-80
2022/05/25 07:11:05;;;;;;;5.77;5.27;;;;;;;17.30;60.16;100671.34;5032338;28;20239;-80
2022/05/25 07:13:32;;;;;;;8.73;6.27;;;;;;;17.41;59.43;100671.19;5032400;28;20259;-80
2022/05/25 07:16:02;;;;;;;7.70;5.83;;;;;;;17.50;58.52;100672.22;5032863;28;20206;-81
2022/05/25 07:18:29;;;;;;;8.60;5.37;;;;;;;17.57;58.42;100684.09;5030334;28;20215;-80
2022/05/25 07:20:59;;;;;;;5.83;5.23;;;;;;;17.64;57.62;100685.28;5032057;28;20224;-81
2022/05/25 07:23:27;;;;;;;7.77;5.63;;;;;;;17.68;57.13;100679.47;5026998;28;20231;-80
2022/05/25 07:25:53;;;;;;;10.57;6.67;;;;;;;17.68;56.69;100684.00;5021068;28;20238;-81
2022/05/25 07:28:20;;;;;;;6.73;6.00;;;;;;;17.67;56.84;100690.38;5031584;28;20700;-81
2022/05/25 07:30:48;;;;;;;9.00;6.50;;;;;;;17.71;57.20;100686.44;5031699;28;20275;-80
2022/05/25 07:33:14;;;;;;;10.77;5.90;;;;;;;17.73;56.85;100695.22;5031688;28;20247;-80
2022/05/25 07:35:41;;;;;;;9.87;5.87;;;;;;;17.77;56.78;100695.75;5031575;28;20203;-80
2022/05/25 07:38:08;;;;;;;8.90;5.37;;;;;;;17.85;56.37;100690.53;5030766;28;20213;-81
2022/05/25 07:40:39;;;;;;;7.23;4.70;;;;;;;17.93;56.06;100690.66;5031653;28;20223;-80
2022/05/25 07:43:10;;;;;;;10.57;4.80;;;;;;;18.02;55.23;100700.56;5031091;28;20212;-80
2022/05/25 07:45:38;;;;;;;11.60;4.73;;;;;;;18.15;55.02;100700.25;5030835;28;20239;-81
2022/05/25 07:48:06;;;;;;;5.13;3.90;;;;;;;18.27;53.83;100699.13;5029917;28;20231;-80
2022/05/25 07:50:33;;;;;;;5.70;3.90;;;;;;;18.36;53.69;100706.31;5031233;28;20596;-81
2022/05/25 07:53:01;;;;;;;4.33;3.50;;;;;;;18.46;53.13;100696.34;5031208;28;20248;-80
2022/05/25 07:55:28;;;;;;;4.40;3.70;;;;;;;18.60;53.33;100697.78;5031318;28;20211;-80
2022/05/25 07:57:56;;;;;;;4.93;3.90;;;;;;;18.75;52.47;100698.16;5029951;28;20211;-80
2022/05/25 08:00:25;;;;;;;5.17;3.90;;;;;;;18.84;51.95;100697.22;5026583;28;20607;-81
2022/05/25 08:05:47;;;;;;;3.90;2.90;;;;;;;18.93;51.01;100696.34;5009293;28;20227;-80
2022/05/25 08:08:16;;;;;;;5.43;3.77;;;;;;;18.99;50.63;100691.19;5010336;28;20197;-80
2022/05/25 08:10:45;;;;;;;3.67;2.80;;;;;;;19.11;50.75;100694.56;5010960;28;20245;-80
2022/05/25 08:13:17;;;;;;;5.87;3.17;;;;;;;19.19;49.96;100691.06;5011311;28;20848;-81
2022/05/25 08:15:43;;;;;;;5.60;2.93;;;;;;;19.31;49.99;100696.13;5010892;28;20190;-81
2022/05/25 08:18:10;;;;;;;3.80;2.73;;;;;;;19.49;50.41;100700.72;5010190;28;20230;-79
2022/05/25 08:20:37;;;;;;;6.07;3.80;;;;;;;19.57;49.20;100690.84;5011737;28;20236;-80
2022/05/25 08:23:05;;;;;;;9.23;3.10;;;;;;;19.65;48.81;100693.63;5011772;28;20586;-81
2022/05/25 08:25:32;;;;;;;5.63;3.00;;;;;;;19.74;48.68;100694.56;5011473;28;20202;-81
2022/05/25 08:27:59;;;;;;;8.47;3.30;;;;;;;19.86;48.53;100684.38;5010695;28;20217;-80
2022/05/25 08:30:27;;;;;;;4.13;2.53;;;;;;;19.98;47.86;100688.50;5010826;28;20203;-81
2022/05/25 08:32:55;;;;;;;6.83;2.77;;;;;;;20.11;47.61;100691.66;5011235;28;20212;-81
2022/05/25 08:35:21;;;;;;;4.40;2.10;;;;;;;20.21;47.30;100683.47;5010936;28;20582;-81
2022/05/25 08:37:48;;;;;;;8.00;2.23;;;;;;;20.28;46.52;100689.91;5010521;28;20572;-80
2022/05/25 08:40:19;;;;;;;2.60;1.80;;;;;;;20.31;45.71;100687.75;5010764;28;20702;-81
2022/05/25 08:42:52;;;;;;;3.87;2.30;;;;;;;20.33;45.35;100679.47;5010539;28;20197;-80
2022/05/25 08:45:20;;;;;;;4.50;2.13;;;;;;;20.39;45.39;100681.59;5013498;28;20193;-82
2022/05/25 08:47:53;;;;;;;4.07;1.80;;;;;;;20.42;44.85;100686.69;5010653;28;20232;-80
2022/05/25 08:50:19;;;;;;;4.30;1.70;;;;;;;20.36;44.71;100681.88;5010892;28;20192;-79
2022/05/25 08:52:47;;;;;;;4.60;2.00;;;;;;;20.29;44.13;100680.78;5011164;28;20294;-80
2022/05/25 08:55:27;;;;;;;1.90;1.70;;;;;;;20.23;44.28;100676.03;5016071;28;20212;-79
2022/05/25 08:57:57;;;;;;;3.47;1.40;;;;;;;20.18;44.47;100678.38;5021777;28;20204;-81
2022/05/25 09:00:24;;;;;;;3.87;1.73;;;;;;;20.23;44.75;100679.59;5020518;28;20214;-80
2022/05/25 09:03:02;;;;;;;3.17;1.70;;;;;;;20.38;44.82;100682.59;5014658;28;20566;-80
2022/05/25 09:05:35;;;;;;;3.30;1.83;;;;;;;20.56;45.16;100677.97;5013146;28;20212;-80
2022/05/25 09:08:13;;;;;;;1.57;1.40;;;;;;;20.76;45.18;100687.53;5014410;28;20626;-80
2022/05/25 09:10:45;;;;;;;3.92;1.92;;;;;;;20.90;43.75;100687.94;5014399;28;20229;-80
2022/05/25 09:13:18;;;;;;;2.25;1.50;;;;;;;21.00;44.10;100686.78;5014501;28;20682;-81
2022/05/25 09:18:43;;;;;;;6.03;2.00;;;;;;;21.20;44.15;100684.69;5014068;28;20634;-81
2022/05/25 09:21:10;;;;;;;2.20;1.30;;;;;;;21.26;42.33;100694.88;5014614;28;20226;-80
2022/05/25 09:23:38;;;;;;;3.00;1.40;;;;;;;21.26;41.85;100678.63;5014250;28;20204;-80
2022/05/25 09:26:04;;;;;;;2.20;1.50;;;;;;;21.26;41.69;100680.47;5014705;28;20229;-80
2022/05/25 09:28:34;;;;;;;2.10;1.73;;;;;;;21.36;42.66;100679.31;5013706;28;20207;-80
2022/05/25 09:31:03;;;;;;;3.75;1.80;;;;;;;21.46;42.44;100671.88;5014568;28;20230;-80
2022/05/25 09:33:36;;;;;;;2.53;1.50;;;;;;;21.54;41.81;100673.75;5013898;28;20673;-80
2022/05/25 09:36:10;;;;;;;3.10;1.90;;;;;;;21.55;41.46;100669.19;5014016;28;20211;-80
2022/05/25 09:38:45;;;;;;;2.35;1.45;;;;;;;21.56;41.25;100669.00;5014233;28;20658;-81
2022/05/25 09:41:14;;;;;;;2.25;1.40;;;;;;;21.57;40.31;100665.28;5014078;28;20229;-80
2022/05/25 09:43:43;;;;;;;3.88;1.60;;;;;;;21.59;40.29;100667.84;5013709;28;20213;-80
2022/05/25 09:46:19;;;;;;;1.65;1.10;;;;;;;21.64;40.46;100662.75;5013868;28;20233;-80
2022/05/25 09:48:50;;;;;;;2.00;1.52;;;;;;;21.70;39.34;100665.63;5014062;28;20197;-80
2022/05/25 09:51:29;;;;;;;1.73;1.27;;;;;;;21.76;39.35;100659.53;5013952;28;20237;-80
2022/05/25 09:54:01;;;;;;;1.58;1.45;;;;;;;21.83;38.88;100670.56;5013913;28;20191;-81
2022/05/25 09:56:31;;;;;;;3.38;1.40;;;;;;;21.90;38.55;100679.69;5014101;28;20241;-80
2022/05/25 09:59:06;;;;;;;2.20;1.33;;;;;;;21.92;38.47;100677.66;5030130;28;20210;-80
2022/05/25 10:01:40;;;;;;;2.40;1.40;;;;;;;21.90;38.78;100677.00;5027082;28;20225;-80
2022/05/25 10:04:09;;;;;;;2.45;1.45;;;;;;;21.90;38.94;100674.28;5033563;28;20659;-80
2022/05/25 10:06:49;;;;;;;2.35;1.25;;;;;;;21.96;39.56;100670.91;5031688;28;20588;-80
2022/05/25 10:09:20;;;;;;;2.42;1.77;;;;;;;22.01;38.69;100673.13;5033070;28;20194;-80
2022/05/25 10:11:48;;;;;;;2.40;1.33;;;;;;;22.02;38.55;100661.28;5032735;28;20252;-80
2022/05/25 10:14:25;;;;;;;1.98;1.35;;;;;;;22.02;38.31;100659.41;5033122;28;20640;-81
2022/05/25 10:16:53;;;;;;;2.40;1.42;;;;;;;22.06;38.51;100652.59;5032132;28;20233;-80
2022/05/25 10:19:22;;;;;;;3.28;1.30;;;;;;;22.16;38.77;100658.72;5032915;28;20221;-80
2022/05/25 10:21:52;;;;;;;1.10;0.93;;;;;;;22.27;37.47;100652.06;5032664;28;20316;-80
2022/05/25 10:24:24;;;;;;;1.88;1.10;;;;;;;22.32;37.09;100665.13;5032968;28;20190;-81
2022/05/25 10:26:53;;;;;;;1.50;1.20;;;;;;;22.44;37.61;100658.28;5047471;28;20308;-79
2022/05/25 10:37:58;;;;;;;1.40;1.00;;;;;;;22.66;35.72;100662.13;5028847;28;20243;-80
2022/05/25 10:40:26;;;;;;;1.40;1.10;;;;;;;22.68;35.27;100647.38;5033203;28;20555;-80
2022/05/25 10:42:59;;;;;;;3.60;1.00;;;;;;;22.73;35.64;100655.00;5033555;28;20569;-80
2022/05/25 10:45:33;;;;;;;1.13;0.80;;;;;;;22.71;34.84;100654.31;5033630;28;20644;-81
2022/05/25 10:48:11;;;;;;;2.53;1.20;;;;;;;22.67;34.82;100651.09;5032464;28;20231;-81
2022/05/25 10:50:46;;;;;;;2.80;1.00;;;;;;;22.64;34.68;100654.16;5033461;28;20600;-80
2022/05/25 10:53:23;;;;;;;2.38;0.65;;;;;;;22.56;34.34;100651.50;5033667;28;20526;-81
2022/05/25 10:55:55;;;;;;;2.55;1.00;;;;;;;22.55;35.06;100663.38;5033025;28;20213;-81
2022/05/25 10:58:39;;;;;;;4.47;1.00;;;;;;;22.49;35.82;100654.06;5025990;28;20789;-81
2022/05/25 11:01:22;;;;;;;2.78;1.20;;;;;;;22.45;35.93;100654.56;5025123;28;20232;-80
2022/05/25 11:04:06;;;;;;;5.32;1.38;;;;;;;22.42;35.89;100646.78;5022471;28;20202;-81
2022/05/25 11:06:53;;;;;;;6.93;1.13;;;;;;;22.43;35.98;100646.59;5019746;28;20230;-80
2022/05/25 11:09:33;;;;;;;7.18;1.25;;;;;;;22.43;35.30;100651.19;5020995;28;20845;-79
2022/05/25 11:12:07;;;;;;;3.50;1.08;;;;;;;22.41;35.34;100650.50;5021701;28;20230;-80
2022/05/25 11:14:47;;;;;;;0.52;0.50;;;;;;;22.42;35.70;100652.19;5019305;28;20201;-80
2022/05/25 11:17:37;;;;;;;1.67;0.70;;;;;;;22.50;35.46;100641.31;5016315;28;20217;-79
2022/05/25 11:20:14;;;;;;;1.95;1.08;;;;;;;22.48;35.12;100652.34;5019316;28;20226;-80
2022/05/25 11:22:49;;;;;;;0.93;0.70;;;;;;;22.51;35.35;100651.16;5017001;28;20230;-80
2022/05/25 11:25:33;;;;;;;2.38;0.68;;;;;;;22.58;35.91;100651.28;5024273;28;20232;-80
2022/05/25 11:28:26;;;;;;;1.73;0.75;;;;;;;22.59;35.61;100642.97;5032641;28;20221;-80
2022/05/25 11:31:08;;;;;;;1.00;0.65;;;;;;;22.69;35.51;100638.22;5015871;28;20221;-78
2022/05/25 11:33:51;;;;;;;2.25;0.70;;;;;;;22.76;35.51;100644.59;5018472;28;20207;-81
2022/05/25 11:36:30;;;;;;;1.00;0.57;;;;;;;22.80;34.08;100635.13;5027917;28;20718;-79
2022/05/25 11:39:08;;;;;;;1.33;0.63;;;;;;;22.80;33.87;100640.56;5031692;28;20190;-80
2022/05/25 11:41:41;;;;;;;6.28;0.68;;;;;;;22.83;34.70;100632.06;5013886;28;20284;-80
2022/05/25 11:44:31;;;;;;;4.40;0.77;;;;;;;22.89;34.51;100633.25;5087246;28;20551;-72
2022/05/25 11:47:07;;;;;;;2.97;0.70;;;;;;;22.81;33.98;100638.69;5086559;28;20228;-72
2022/05/25 11:49:52;;;;;;;0.57;0.40;;;;;;;22.77;34.22;100640.06;5086709;28;20212;-71
2022/05/25 11:52:38;;;;;;;0.75;0.47;;;;;;;22.73;33.85;100638.72;5087157;28;20202;-71
2022/05/25 11:55:15;;;;;;;2.28;0.40;;;;;;;22.68;33.99;100636.50;5089614;22;20235;-67
2022/05/25 11:57:50;;;;;;;1.80;0.50;;;;;;;22.74;34.71;100643.13;5058248;28;20699;-67
2022/05/25 12:00:40;;;;;;;0.95;0.57;;;;;;;22.80;34.04;100640.56;5052772;28;20223;-66
2022/05/25 12:03:39;;;;;;;0.77;0.60;;;;;;;22.84;33.95;100636.47;5053957;28;20229;-67